Ana Sayfa
METAR-TAF:

METAR-TAF

Havaalanları :

Daegu, Güney Kore

Enlem: 35-54N, Boylam: 128-39E, yükseklik: 35 m

Güncel hava durumu gözlemi

Rapor saat 06:00 UTC de 1 saat ve 7 dakika önce yapıldı.
Rüzgar kuzeybatıdan 19 kt ve 29 kt'a kadar ani rüzgarlar
Sıcaklık 4°C
Nem 25%
Basınç 1020 hPa
Görüş mesafesi 10 km veya daha fazla
1500 m altında bulut yok ve kümülonimbus yok

METAR: RKTN 010600Z 31019G29KT CAVOK 04/M14 Q1020

Saat: 16:07 (07:07 UTC)

Tahmin

Rapor saat 05:00 UTC de 2 saat ve 7 dakika önce yapıldı.
Ayın 01'si saat 06 UTC'den ayın 02'si saat 12 UTC'ye kadar geçerli Tahmin
Rüzgar batı/kuzeybatıdan 12 kt ve 22 kt'a kadar ani rüzgarlar
Görüş mesafesi 10 km veya daha fazla
3000 ft yükseklikte parçalı bulutlu
Dönüşüyor
ayın 01'si saat 11 UTC'den ayın 01'si saat 12 UTC'ye kadar
Rüzgar batı/kuzeybatıdan 8 kt

TAF: RKTN 010500Z 0106/0212 30012G22KT 9999 SCT030 TNM08/0121Z TX03/0206Z BECMG 0111/0112 30008KT

4.000'den fazla havaalanı için hava durumu gözlemleri ve tahminleri (METAR ve TAF raporları).

Kullanılabilir istasyonlar harita üzerinde sarı ve kırmızı noktalarla gösterilir.

İstasyonun adını görmek için fareyi noktanın üzerinde gezdirin.

Sonrasında hava gözlem ve tahminlerini görmek için tıklayın.

Haritayı değiştirmek için: yaklaştırmak için siyah artı işaretli yeşil düğmeye ve uzaklaştırmak için de eksi işaretli düğmeye hızla tıklayın; bitişik haritalar için yeşil okları kullanın.


METAR-TAF: